Time;durP1;ratioP1;P1;durP2;ratioP2;P2;SDS_P1;SDS_P2;PMS_P1;PMS_P2;Temp;Humidity;BMP_temperature;BMP_pressure;BME280_temperature;BME280_humidity;BME280_pressure;Samples;Min_cycle;Max_cycle;Signal;HPM_P1;HPM_P2
2023/07/22 00:00:16;;;;;;;14.05;8.77;;;13.90;99.90;;;;;;5041102;28;20052;-73
2023/07/22 00:02:42;;;;;;;12.40;8.35;;;13.80;99.90;;;;;;5037660;28;20044;-74
2023/07/22 00:05:10;;;;;;;13.40;8.60;;;13.80;99.90;;;;;;5058668;28;20045;-74
2023/07/22 00:07:36;;;;;;;13.32;9.20;;;13.70;99.90;;;;;;5054164;28;20482;-74
2023/07/22 00:10:02;;;;;;;12.32;9.13;;;13.60;99.90;;;;;;5058998;28;20501;-74
2023/07/22 00:12:28;;;;;;;12.40;9.30;;;13.60;99.90;;;;;;5057711;28;20067;-74
2023/07/22 00:14:54;;;;;;;13.02;10.00;;;13.60;99.90;;;;;;5057973;28;20488;-74
2023/07/22 00:17:20;;;;;;;14.15;9.98;;;13.50;99.90;;;;;;5052624;28;20045;-73
2023/07/22 00:19:50;;;;;;;13.30;10.50;;;13.50;99.90;;;;;;5050551;28;20044;-73
2023/07/22 00:22:20;;;;;;;12.43;9.88;;;13.40;99.90;;;;;;5052633;28;20056;-74
2023/07/22 00:24:45;;;;;;;12.80;9.52;;;13.40;99.90;;;;;;5058230;28;20452;-74
2023/07/22 00:27:11;;;;;;;13.80;10.50;;;13.40;99.90;;;;;;5040770;28;20075;-74
2023/07/22 00:29:40;;;;;;;13.43;9.68;;;13.40;99.90;;;;;;5039905;28;20080;-74
2023/07/22 00:32:08;;;;;;;14.15;10.07;;;13.40;99.90;;;;;;5057164;28;20033;-74
2023/07/22 00:34:34;;;;;;;11.95;9.60;;;13.40;99.90;;;;;;5041890;28;20044;-74
2023/07/22 00:37:00;;;;;;;13.52;9.45;;;13.40;99.90;;;;;;5053715;28;20529;-74
2023/07/22 00:39:26;;;;;;;14.45;10.20;;;13.40;99.90;;;;;;5057939;28;20080;-74
2023/07/22 00:41:51;;;;;;;18.38;11.73;;;13.30;99.90;;;;;;5054303;28;20040;-74
2023/07/22 00:44:17;;;;;;;13.52;10.13;;;13.20;99.90;;;;;;5056390;28;21101;-74
2023/07/22 00:46:43;;;;;;;12.88;9.73;;;13.20;99.90;;;;;;5040202;28;20040;-75
2023/07/22 00:49:09;;;;;;;12.07;9.43;;;13.10;99.90;;;;;;5057320;28;20048;-75
2023/07/22 00:51:35;;;;;;;13.32;9.63;;;13.10;99.90;;;;;;5038292;28;20052;-73
2023/07/22 00:54:01;;;;;;;12.15;9.75;;;13.10;99.90;;;;;;5027119;28;20491;-73
2023/07/22 00:56:27;;;;;;;12.98;9.40;;;13.10;99.90;;;;;;5041624;28;20032;-75
2023/07/22 00:58:53;;;;;;;13.07;10.20;;;13.00;99.90;;;;;;5037672;28;20041;-74
2023/07/22 01:01:18;;;;;;;14.80;10.55;;;13.00;99.90;;;;;;5039866;28;20045;-75
2023/07/22 01:03:46;;;;;;;13.40;10.18;;;12.90;99.90;;;;;;5057744;28;20052;-74
2023/07/22 01:06:13;;;;;;;12.93;9.77;;;12.80;99.90;;;;;;5053264;28;20052;-74
2023/07/22 01:08:39;;;;;;;13.82;9.70;;;12.80;99.90;;;;;;5057530;28;20102;-74
2023/07/22 01:11:06;;;;;;;17.67;11.20;;;12.70;99.90;;;;;;5044256;28;20036;-75
2023/07/22 01:13:31;;;;;;;13.38;10.45;;;12.70;99.90;;;;;;5043925;28;20466;-75
2023/07/22 01:15:57;;;;;;;15.07;11.63;;;12.70;99.90;;;;;;5058438;28;20276;-74
2023/07/22 01:18:23;;;;;;;14.13;10.00;;;12.60;99.90;;;;;;5057587;28;20081;-74
2023/07/22 01:20:49;;;;;;;10.65;9.25;;;12.60;99.90;;;;;;5062035;28;20036;-74
2023/07/22 01:23:15;;;;;;;16.77;11.05;;;12.60;99.90;;;;;;5044265;28;20048;-74
2023/07/22 01:25:41;;;;;;;13.98;10.27;;;12.60;99.90;;;;;;5065337;28;20048;-75
2023/07/22 01:28:10;;;;;;;13.45;10.55;;;12.70;99.90;;;;;;5044914;28;20045;-74
2023/07/22 01:30:36;;;;;;;15.75;10.75;;;12.70;99.90;;;;;;5057893;28;20123;-74
2023/07/22 01:33:03;;;;;;;14.52;10.27;;;12.60;99.90;;;;;;5059317;28;20123;-74
2023/07/22 01:35:28;;;;;;;13.93;10.80;;;12.60;99.90;;;;;;5045739;28;20225;-74
2023/07/22 01:37:54;;;;;;;11.70;8.93;;;12.60;99.90;;;;;;5059471;28;20391;-75
2023/07/22 01:40:20;;;;;;;15.00;10.65;;;12.50;99.90;;;;;;5055803;28;20583;-74
2023/07/22 01:42:46;;;;;;;16.70;11.50;;;12.50;99.90;;;;;;5058503;28;20064;-74
2023/07/22 01:45:12;;;;;;;17.23;11.40;;;12.40;99.90;;;;;;5037299;28;20152;-74
2023/07/22 01:47:40;;;;;;;16.52;12.55;;;12.30;99.90;;;;;;5063148;28;20431;-74
2023/07/22 01:50:06;;;;;;;16.70;12.20;;;12.20;99.90;;;;;;5058817;28;20102;-74
2023/07/22 01:52:32;;;;;;;14.52;10.70;;;12.10;99.90;;;;;;5061005;28;20048;-73
2023/07/22 01:54:58;;;;;;;14.82;10.57;;;12.00;99.90;;;;;;5055862;28;20484;-74
2023/07/22 01:57:24;;;;;;;16.58;11.68;;;12.00;99.90;;;;;;5058296;28;20055;-74
2023/07/22 01:59:50;;;;;;;11.95;9.57;;;12.00;99.90;;;;;;5047891;28;20040;-73
2023/07/22 02:02:16;;;;;;;14.68;11.77;;;11.90;99.90;;;;;;5039297;28;20055;-74
2023/07/22 02:04:41;;;;;;;14.18;10.55;;;11.90;99.90;;;;;;5050113;28;20037;-73
2023/07/22 02:07:08;;;;;;;12.63;11.23;;;11.90;99.90;;;;;;5032688;28;20151;-73
2023/07/22 02:09:35;;;;;;;12.80;10.30;;;11.90;99.90;;;;;;5041140;28;20070;-74
2023/07/22 02:12:01;;;;;;;15.10;11.98;;;11.90;99.90;;;;;;5037700;28;20123;-74
2023/07/22 02:14:26;;;;;;;17.20;12.57;;;11.90;99.90;;;;;;5056372;28;20127;-74
2023/07/22 02:16:52;;;;;;;14.77;11.25;;;12.00;99.90;;;;;;5052827;28;20060;-74
2023/07/22 02:19:18;;;;;;;14.32;11.52;;;12.00;99.90;;;;;;5057254;28;20055;-74
2023/07/22 02:21:43;;;;;;;13.00;10.73;;;12.00;99.90;;;;;;5040489;28;20056;-74
2023/07/22 02:24:10;;;;;;;13.77;11.55;;;12.10;99.90;;;;;;5057973;28;20152;-74
2023/07/22 02:26:36;;;;;;;12.02;10.20;;;12.10;99.90;;;;;;5055671;28;20040;-74
2023/07/22 02:29:02;;;;;;;12.55;10.70;;;12.10;99.90;;;;;;5061647;28;20066;-74
2023/07/22 02:31:28;;;;;;;14.45;10.93;;;12.00;99.90;;;;;;5043604;28;20513;-74
2023/07/22 02:33:53;;;;;;;14.73;11.35;;;12.00;99.90;;;;;;5053973;28;20597;-74
2023/07/22 02:36:19;;;;;;;14.10;11.50;;;12.00;99.90;;;;;;5042736;28;20482;-74
2023/07/22 02:38:45;;;;;;;13.57;10.35;;;12.00;99.90;;;;;;5061618;28;20056;-74
2023/07/22 02:41:11;;;;;;;14.35;10.02;;;12.00;99.90;;;;;;5054324;28;20045;-75
2023/07/22 02:43:36;;;;;;;12.38;10.25;;;12.00;99.90;;;;;;5058150;28;20126;-74
2023/07/22 02:46:06;;;;;;;14.48;11.13;;;12.00;99.90;;;;;;5047690;28;20052;-74
2023/07/22 02:48:32;;;;;;;14.98;10.57;;;12.00;99.90;;;;;;5037727;28;20052;-74
2023/07/22 02:51:05;;;;;;;13.43;10.60;;;12.00;99.90;;;;;;5053333;28;20238;-74
2023/07/22 02:53:32;;;;;;;15.48;11.43;;;11.90;99.90;;;;;;5037547;28;20041;-74
2023/07/22 02:55:59;;;;;;;13.27;10.25;;;12.00;99.90;;;;;;5053530;28;20049;-75
2023/07/22 02:58:24;;;;;;;16.40;10.98;;;12.00;99.90;;;;;;5054711;28;20510;-74
2023/07/22 03:00:50;;;;;;;14.68;11.43;;;12.00;99.90;;;;;;5027589;28;20124;-74
2023/07/22 03:03:16;;;;;;;14.43;11.25;;;12.10;99.90;;;;;;5053595;28;20505;-74
2023/07/22 03:05:42;;;;;;;15.02;11.70;;;12.10;99.90;;;;;;5031050;28;20045;-74
2023/07/22 03:08:08;;;;;;;13.45;10.90;;;12.10;99.90;;;;;;5051522;28;20036;-74
2023/07/22 03:10:33;;;;;;;17.88;12.43;;;12.10;99.90;;;;;;5050874;28;20151;-74
2023/07/22 03:13:03;;;;;;;17.05;12.45;;;12.10;99.90;;;;;;5034231;28;20052;-74
2023/07/22 03:15:29;;;;;;;16.05;13.07;;;12.10;99.90;;;;;;5034846;28;20045;-74
2023/07/22 03:17:56;;;;;;;14.65;11.60;;;12.10;99.90;;;;;;5052744;28;20155;-74
2023/07/22 03:20:23;;;;;;;14.75;12.43;;;12.10;99.90;;;;;;5035741;28;21316;-74
2023/07/22 03:22:49;;;;;;;14.82;11.70;;;12.10;99.90;;;;;;5055818;28;20052;-75
2023/07/22 03:25:16;;;;;;;17.27;12.18;;;12.10;99.90;;;;;;5053145;28;20048;-74
2023/07/22 03:27:45;;;;;;;17.70;13.10;;;12.10;99.90;;;;;;5034103;28;20048;-74
2023/07/22 03:30:16;;;;;;;19.00;13.40;;;12.10;99.90;;;;;;5054001;28;20040;-74
2023/07/22 03:32:53;;;;;;;17.92;12.57;;;12.10;99.90;;;;;;5036989;28;20047;-74
2023/07/22 03:35:18;;;;;;;17.60;12.27;;;12.20;99.90;;;;;;5056042;28;20067;-74
2023/07/22 03:37:44;;;;;;;16.60;13.20;;;12.20;99.90;;;;;;5039392;28;20036;-74
2023/07/22 03:40:20;;;;;;;17.35;13.60;;;12.20;99.90;;;;;;5054213;28;20140;-74
2023/07/22 03:42:50;;;;;;;15.20;12.57;;;12.30;99.90;;;;;;5057302;28;20048;-74
2023/07/22 03:45:17;;;;;;;15.80;12.30;;;12.30;99.90;;;;;;5036766;28;20044;-73
2023/07/22 03:47:45;;;;;;;17.98;14.05;;;12.30;99.90;;;;;;5037720;28;20124;-74
2023/07/22 03:50:11;;;;;;;16.90;12.30;;;12.40;99.90;;;;;;5056588;28;20040;-76
2023/07/22 03:52:38;;;;;;;18.02;12.88;;;12.40;99.90;;;;;;5059057;28;20495;-75
2023/07/22 03:55:05;;;;;;;15.13;11.63;;;12.40;99.90;;;;;;5055032;28;20843;-75
2023/07/22 03:57:31;;;;;;;17.67;12.27;;;12.50;99.90;;;;;;5040513;28;20040;-75
2023/07/22 03:59:57;;;;;;;15.65;11.80;;;12.50;99.90;;;;;;5035057;28;20062;-75
2023/07/22 04:02:27;;;;;;;15.25;12.00;;;12.50;99.90;;;;;;5054223;28;20044;-75
2023/07/22 04:04:56;;;;;;;15.97;12.73;;;12.50;99.90;;;;;;5007464;28;20171;-75
2023/07/22 04:07:22;;;;;;;16.27;12.07;;;12.50;99.90;;;;;;5015292;28;20612;-75
2023/07/22 04:09:49;;;;;;;14.82;12.27;;;12.50;99.90;;;;;;5013692;28;20052;-76
2023/07/22 04:12:15;;;;;;;15.27;12.82;;;12.50;99.90;;;;;;5017786;28;20635;-75
2023/07/22 04:14:41;;;;;;;17.48;13.45;;;12.60;99.90;;;;;;5015609;28;20055;-75
2023/07/22 04:17:07;;;;;;;18.30;13.90;;;12.60;99.90;;;;;;5014869;28;20060;-75
2023/07/22 04:19:33;;;;;;;18.40;13.00;;;12.60;99.90;;;;;;5014224;28;20635;-75
2023/07/22 04:22:03;;;;;;;17.08;13.25;;;12.60;99.90;;;;;;5032090;28;20044;-74
2023/07/22 04:24:32;;;;;;;15.68;12.55;;;12.70;99.90;;;;;;5016937;28;20178;-75
2023/07/22 04:26:58;;;;;;;18.38;14.18;;;12.70;99.90;;;;;;5034234;28;20655;-75
2023/07/22 04:29:24;;;;;;;21.77;15.45;;;12.80;99.90;;;;;;5016490;28;20048;-74
2023/07/22 04:31:49;;;;;;;20.85;15.35;;;12.80;99.90;;;;;;5016672;28;20048;-75
2023/07/22 04:34:15;;;;;;;19.52;15.15;;;12.90;99.90;;;;;;5033526;28;20045;-74
2023/07/22 04:36:41;;;;;;;17.27;13.50;;;12.90;99.90;;;;;;5032280;28;20784;-74
2023/07/22 04:39:10;;;;;;;26.90;16.08;;;13.00;99.90;;;;;;5033367;28;20098;-74
2023/07/22 04:41:35;;;;;;;22.65;16.27;;;13.00;99.90;;;;;;5037032;28;20060;-74
2023/07/22 04:44:01;;;;;;;23.17;17.63;;;13.10;99.90;;;;;;5026143;28;20539;-74
2023/07/22 04:46:28;;;;;;;22.38;17.08;;;13.20;99.90;;;;;;5026822;28;20853;-74
2023/07/22 04:49:01;;;;;;;22.95;16.63;;;13.20;99.90;;;;;;5026443;28;20722;-75
2023/07/22 04:51:27;;;;;;;22.85;16.85;;;13.20;99.90;;;;;;5030950;28;20517;-75
2023/07/22 04:53:53;;;;;;;23.05;18.25;;;13.30;99.90;;;;;;5055969;28;20063;-74
2023/07/22 04:56:18;;;;;;;22.95;16.77;;;13.20;99.90;;;;;;5057658;28;20041;-75
2023/07/22 04:58:44;;;;;;;24.00;16.92;;;13.30;99.90;;;;;;5041405;28;20481;-75
2023/07/22 05:01:10;;;;;;;22.85;16.55;;;13.40;99.90;;;;;;5061973;28;20046;-74
2023/07/22 05:03:36;;;;;;;22.40;17.40;;;13.40;99.90;;;;;;5048926;28;20084;-74
2023/07/22 05:06:02;;;;;;;22.20;17.10;;;13.50;99.90;;;;;;5058347;28;20064;-74
2023/07/22 05:08:27;;;;;;;22.42;16.20;;;13.50;99.90;;;;;;5064299;28;20071;-73
2023/07/22 05:10:53;;;;;;;22.75;16.92;;;13.50;99.90;;;;;;5052673;28;20094;-74
2023/07/22 05:13:19;;;;;;;23.40;16.33;;;13.60;99.90;;;;;;5050110;28;20056;-74
2023/07/22 05:15:45;;;;;;;22.33;16.23;;;13.60;99.90;;;;;;5061740;28;20143;-74
2023/07/22 05:18:11;;;;;;;21.35;16.33;;;13.70;99.90;;;;;;5045382;28;20714;-74
2023/07/22 05:20:41;;;;;;;19.48;14.75;;;13.70;99.90;;;;;;5060912;28;20048;-73
2023/07/22 05:23:07;;;;;;;21.90;16.48;;;13.70;99.90;;;;;;5060908;28;20052;-74
2023/07/22 05:25:33;;;;;;;23.25;17.98;;;13.80;99.90;;;;;;5041275;28;20056;-75
2023/07/22 05:27:59;;;;;;;22.60;16.27;;;13.80;99.90;;;;;;5042605;28;20048;-74
2023/07/22 05:30:24;;;;;;;23.50;17.73;;;13.80;99.90;;;;;;5057857;28;20624;-74
2023/07/22 05:32:53;;;;;;;21.35;16.70;;;13.80;99.90;;;;;;5048420;28;20076;-75
2023/07/22 05:35:19;;;;;;;22.38;16.38;;;13.80;99.90;;;;;;5061945;28;20135;-75
2023/07/22 05:37:45;;;;;;;21.40;17.25;;;13.80;99.90;;;;;;5056296;28;20490;-75
2023/07/22 05:40:11;;;;;;;25.75;18.77;;;13.80;99.90;;;;;;5047045;28;20036;-75
2023/07/22 05:42:41;;;;;;;22.85;17.35;;;13.90;99.90;;;;;;5059081;28;20120;-75
2023/07/22 05:45:13;;;;;;;22.05;16.13;;;13.90;99.90;;;;;;5059606;28;20044;-75
2023/07/22 05:47:39;;;;;;;22.75;17.83;;;13.90;99.90;;;;;;5061209;28;20052;-75
2023/07/22 05:50:06;;;;;;;23.63;17.30;;;13.90;99.90;;;;;;5043557;28;20048;-75
2023/07/22 05:52:32;;;;;;;20.73;15.63;;;13.90;99.90;;;;;;5041651;28;20094;-75
2023/07/22 05:54:57;;;;;;;19.60;15.73;;;13.90;99.90;;;;;;5048313;28;20042;-74
2023/07/22 05:57:23;;;;;;;21.98;17.05;;;14.00;99.90;;;;;;5060765;28;20040;-74
2023/07/22 05:59:49;;;;;;;20.38;16.27;;;14.00;99.90;;;;;;5066466;28;20112;-74
2023/07/22 06:02:18;;;;;;;22.80;16.80;;;14.10;99.90;;;;;;5043626;28;20064;-75
2023/07/22 06:04:44;;;;;;;23.10;17.15;;;14.10;99.90;;;;;;5044916;28;20051;-75
2023/07/22 06:07:09;;;;;;;20.85;16.92;;;14.20;99.90;;;;;;5053234;28;20045;-75
2023/07/22 06:09:35;;;;;;;20.67;16.48;;;14.20;99.90;;;;;;5062769;28;20040;-75
2023/07/22 06:12:01;;;;;;;21.38;16.10;;;14.30;99.90;;;;;;5060311;28;20490;-75
2023/07/22 06:14:27;;;;;;;21.05;17.35;;;14.30;99.90;;;;;;5046054;28;20503;-75
2023/07/22 06:16:53;;;;;;;23.52;18.30;;;14.30;99.90;;;;;;5062580;28;20047;-74
2023/07/22 06:19:18;;;;;;;24.58;18.20;;;14.40;99.90;;;;;;5039661;28;21971;-75
2023/07/22 06:21:44;;;;;;;22.13;16.92;;;14.40;99.90;;;;;;5039311;28;20040;-75
2023/07/22 06:24:10;;;;;;;22.60;17.27;;;14.40;99.90;;;;;;5053424;28;20033;-74
2023/07/22 06:26:36;;;;;;;22.13;17.98;;;14.40;99.90;;;;;;5039533;28;20067;-74
2023/07/22 06:29:02;;;;;;;23.55;16.55;;;14.40;99.90;;;;;;5054559;28;20122;-75
2023/07/22 06:31:30;;;;;;;21.45;16.55;;;14.50;99.90;;;;;;5042322;28;20060;-75
2023/07/22 06:33:58;;;;;;;24.95;18.05;;;14.50;99.90;;;;;;5056722;28;20072;-76
2023/07/22 06:36:25;;;;;;;20.15;16.42;;;14.60;99.90;;;;;;5058466;28;20078;-74
2023/07/22 06:38:51;;;;;;;25.60;18.80;;;14.70;99.90;;;;;;5045920;28;20723;-72
2023/07/22 06:41:18;;;;;;;21.98;18.08;;;14.70;99.90;;;;;;5055893;28;20599;-74
2023/07/22 06:43:44;;;;;;;21.13;17.13;;;14.80;99.90;;;;;;5040455;28;20052;-74
2023/07/22 06:46:10;;;;;;;21.63;17.20;;;14.90;99.90;;;;;;5033630;28;20545;-73
2023/07/22 06:48:36;;;;;;;21.05;15.50;;;14.90;99.90;;;;;;5057528;28;20048;-74
2023/07/22 06:51:02;;;;;;;21.92;16.88;;;15.00;99.90;;;;;;5042828;28;20051;-73
2023/07/22 06:53:28;;;;;;;18.92;15.82;;;15.00;99.90;;;;;;5062650;28;20712;-73
2023/07/22 06:55:54;;;;;;;20.45;16.77;;;15.10;99.90;;;;;;5060929;28;20123;-74
2023/07/22 06:58:22;;;;;;;18.73;15.90;;;15.20;99.90;;;;;;5041349;28;20612;-74
2023/07/22 07:00:48;;;;;;;19.67;15.88;;;15.30;99.90;;;;;;5059216;28;20499;-73
2023/07/22 07:03:13;;;;;;;19.50;15.70;;;15.30;99.90;;;;;;5060818;28;20060;-73
2023/07/22 07:05:41;;;;;;;21.52;15.80;;;15.30;99.90;;;;;;5065222;28;20079;-73
2023/07/22 07:08:08;;;;;;;18.35;15.70;;;15.40;99.90;;;;;;5048573;28;20051;-74
2023/07/22 07:10:39;;;;;;;19.00;15.73;;;15.50;99.90;;;;;;5062625;28;20045;-73
2023/07/22 07:13:04;;;;;;;19.65;15.95;;;15.60;99.90;;;;;;5061281;28;20399;-73
2023/07/22 07:15:30;;;;;;;20.25;16.23;;;15.60;99.90;;;;;;5057524;28;20045;-73
2023/07/22 07:17:56;;;;;;;16.08;13.88;;;15.60;99.90;;;;;;5087875;28;20047;-74
2023/07/22 07:20:22;;;;;;;16.98;14.35;;;15.70;99.90;;;;;;5042445;28;20491;-74
2023/07/22 07:22:47;;;;;;;16.27;14.35;;;15.80;99.90;;;;;;5056316;28;20105;-76
2023/07/22 07:25:15;;;;;;;15.27;13.60;;;15.80;99.90;;;;;;5051453;28;20063;-74
2023/07/22 07:27:41;;;;;;;19.50;14.27;;;15.90;99.90;;;;;;5073873;28;20040;-75
2023/07/22 07:30:10;;;;;;;17.67;14.23;;;15.90;99.90;;;;;;5061355;28;20044;-75
2023/07/22 07:32:36;;;;;;;17.40;14.57;;;16.00;99.90;;;;;;5043882;28;20143;-74
2023/07/22 07:35:03;;;;;;;16.48;14.15;;;16.10;99.90;;;;;;5049403;28;20048;-74
2023/07/22 07:37:30;;;;;;;17.95;14.50;;;16.20;99.90;;;;;;5065018;28;20044;-75
2023/07/22 07:39:59;;;;;;;18.50;14.77;;;16.40;99.90;;;;;;5040909;28;20571;-75
2023/07/22 07:42:29;;;;;;;15.88;13.85;;;16.40;99.90;;;;;;5060313;28;20109;-75
2023/07/22 07:44:55;;;;;;;16.73;14.63;;;16.50;99.90;;;;;;5051202;28;20056;-74
2023/07/22 07:47:21;;;;;;;17.85;15.15;;;16.60;99.90;;;;;;5074778;28;20108;-75
2023/07/22 07:49:46;;;;;;;17.15;14.35;;;16.80;99.90;;;;;;5045740;28;20543;-75
2023/07/22 07:52:12;;;;;;;17.08;14.68;;;16.90;99.90;;;;;;5075179;28;20197;-75
2023/07/22 07:54:38;;;;;;;20.98;15.23;;;17.20;99.90;;;;;;5057022;28;20075;-74
2023/07/22 07:57:04;;;;;;;17.67;15.77;;;17.30;99.90;;;;;;5061873;28;20102;-73
2023/07/22 07:59:30;;;;;;;17.55;15.23;;;17.40;99.90;;;;;;5062037;28;20047;-73
2023/07/22 08:01:55;;;;;;;16.67;14.43;;;17.40;99.90;;;;;;5044848;28;20656;-74
2023/07/22 08:04:21;;;;;;;18.80;15.05;;;17.40;99.90;;;;;;5069244;28;20484;-74
2023/07/22 08:06:47;;;;;;;18.40;15.60;;;17.40;99.90;;;;;;5048512;28;20043;-74
2023/07/22 08:09:18;;;;;;;17.38;14.70;;;17.40;99.90;;;;;;5069948;28;20369;-74
2023/07/22 08:11:44;;;;;;;19.98;17.25;;;17.30;99.90;;;;;;5059873;28;20056;-73
2023/07/22 08:14:10;;;;;;;17.98;15.63;;;17.30;99.90;;;;;;5062089;28;20101;-74
2023/07/22 08:16:36;;;;;;;17.35;14.65;;;17.30;99.90;;;;;;5050948;28;20509;-74
2023/07/22 08:19:01;;;;;;;18.40;14.82;;;17.30;99.90;;;;;;5069709;28;20037;-75
2023/07/22 08:21:27;;;;;;;18.98;15.23;;;17.50;99.90;;;;;;5062388;28;20736;-74
2023/07/22 08:23:53;;;;;;;17.98;14.85;;;17.50;99.90;;;;;;5059708;28;20483;-74
2023/07/22 08:26:20;;;;;;;18.25;14.55;;;17.60;99.90;;;;;;5060414;28;20048;-74
2023/07/22 08:28:50;;;;;;;16.05;14.05;;;17.60;99.90;;;;;;5057271;28;20048;-74
2023/07/22 08:31:16;;;;;;;18.67;14.60;;;17.70;99.90;;;;;;5069664;28;20036;-74
2023/07/22 08:33:41;;;;;;;16.52;13.80;;;17.70;99.90;;;;;;5061098;28;20502;-74
2023/07/22 08:36:08;;;;;;;16.77;14.07;;;17.70;99.90;;;;;;5062820;28;20398;-74
2023/07/22 08:38:34;;;;;;;16.27;14.05;;;17.70;99.90;;;;;;5043255;28;20575;-74
2023/07/22 08:41:00;;;;;;;15.90;14.18;;;17.70;99.90;;;;;;5066548;28;20040;-74
2023/07/22 08:43:28;;;;;;;16.15;14.25;;;17.60;99.90;;;;;;5064239;28;20079;-74
2023/07/22 08:45:54;;;;;;;17.15;14.45;;;17.60;99.90;;;;;;5041099;28;20039;-74
2023/07/22 08:48:26;;;;;;;16.48;13.82;;;17.50;99.90;;;;;;5046958;28;20128;-75
2023/07/22 08:51:18;;;;;;;18.88;15.23;;;17.40;99.90;;;;;;5050657;28;20116;-75
2023/07/22 08:53:51;;;;;;;16.45;14.45;;;17.40;99.90;;;;;;5055495;28;20052;-74
2023/07/22 08:56:17;;;;;;;17.52;14.75;;;17.30;99.90;;;;;;5053265;28;20124;-74
2023/07/22 08:58:45;;;;;;;18.65;14.23;;;17.30;99.90;;;;;;5044097;28;20108;-75
2023/07/22 09:01:10;;;;;;;17.45;14.02;;;17.20;99.90;;;;;;5051336;28;20268;-74
2023/07/22 09:03:39;;;;;;;16.67;14.05;;;17.20;99.90;;;;;;5046457;28;20080;-75
2023/07/22 09:06:05;;;;;;;17.77;14.65;;;17.10;99.90;;;;;;5042042;28;20106;-76
2023/07/22 09:08:31;;;;;;;20.00;15.30;;;17.10;99.90;;;;;;5058067;28;20095;-75
2023/07/22 09:10:58;;;;;;;17.90;14.63;;;17.10;99.90;;;;;;5047506;28;20768;-75
2023/07/22 09:13:26;;;;;;;17.15;14.95;;;17.00;99.90;;;;;;5036971;28;20053;-74
2023/07/22 09:15:53;;;;;;;16.08;14.00;;;16.90;99.90;;;;;;5056830;28;20796;-74
2023/07/22 09:18:18;;;;;;;18.10;14.55;;;16.90;99.90;;;;;;5053071;28;20504;-74
2023/07/22 09:20:44;;;;;;;19.00;14.65;;;16.80;99.90;;;;;;5051763;28;20052;-75
2023/07/22 09:23:11;;;;;;;16.75;14.25;;;16.80;99.90;;;;;;5053279;28;20127;-74
2023/07/22 09:25:41;;;;;;;17.05;14.57;;;16.90;99.90;;;;;;5060847;28;20044;-74
2023/07/22 09:28:07;;;;;;;16.50;13.75;;;16.90;99.90;;;;;;5059503;28;20450;-74
2023/07/22 09:30:36;;;;;;;15.82;12.20;;;17.00;99.90;;;;;;5042841;28;20052;-74
2023/07/22 09:33:03;;;;;;;15.65;12.57;;;17.00;99.90;;;;;;5059876;28;20055;-75
2023/07/22 09:35:31;;;;;;;13.82;10.73;;;17.10;99.90;;;;;;5056496;28;20537;-74
2023/07/22 09:37:58;;;;;;;11.93;9.88;;;17.30;99.90;;;;;;5044476;28;20040;-74
2023/07/22 09:40:28;;;;;;;11.68;8.85;;;17.30;99.90;;;;;;5043811;28;20110;-74
2023/07/22 09:43:00;;;;;;;10.60;8.40;;;17.40;99.90;;;;;;5049390;28;20142;-74
2023/07/22 09:45:29;;;;;;;10.48;7.80;;;17.50;99.90;;;;;;5049504;28;20052;-74
2023/07/22 09:47:55;;;;;;;9.45;7.60;;;17.60;99.90;;;;;;5032700;28;20061;-73
2023/07/22 09:50:26;;;;;;;8.57;7.20;;;17.70;99.90;;;;;;5046409;28;20045;-73
2023/07/22 09:52:53;;;;;;;8.40;6.65;;;17.70;99.90;;;;;;5034445;28;20069;-74
2023/07/22 09:55:22;;;;;;;8.07;6.28;;;17.70;99.90;;;;;;5045641;28;20146;-73
2023/07/22 09:57:54;;;;;;;5.05;3.97;;;17.70;99.90;;;;;;5049015;28;20032;-74
2023/07/22 10:00:20;;;;;;;5.90;3.55;;;17.80;99.90;;;;;;5039007;28;20123;-73
2023/07/22 10:02:52;;;;;;;5.45;3.65;;;17.80;99.90;;;;;;5047276;28;20137;-72
2023/07/22 10:05:22;;;;;;;5.20;3.45;;;17.80;99.90;;;;;;5047664;28;20037;-73
2023/07/22 10:07:58;;;;;;;5.60;3.25;;;17.80;99.90;;;;;;5044987;28;20135;-73
2023/07/22 10:10:30;;;;;;;5.20;4.00;;;17.80;99.90;;;;;;5050432;28;20175;-72
2023/07/22 10:12:57;;;;;;;5.95;3.53;;;17.80;99.90;;;;;;5058074;28;20045;-73
2023/07/22 10:15:25;;;;;;;5.53;4.47;;;17.80;99.90;;;;;;5054551;28;20106;-73
2023/07/22 10:17:53;;;;;;;5.35;4.05;;;17.80;99.90;;;;;;5040473;28;20491;-73
2023/07/22 10:20:19;;;;;;;5.47;4.68;;;17.80;99.90;;;;;;5045865;28;20053;-73
2023/07/22 10:22:47;;;;;;;6.35;4.60;;;17.70;99.90;;;;;;5058172;28;20127;-73
2023/07/22 10:25:16;;;;;;;6.68;5.20;;;17.60;99.90;;;;;;5049678;28;20057;-73
2023/07/22 10:27:42;;;;;;;7.18;5.47;;;17.60;99.90;;;;;;5056928;28;20037;-73
2023/07/22 10:30:13;;;;;;;7.80;6.35;;;17.50;99.90;;;;;;5054783;28;20499;-75
2023/07/22 10:32:45;;;;;;;8.40;6.97;;;17.40;99.90;;;;;;5056579;28;20141;-74
2023/07/22 10:35:12;;;;;;;9.70;7.57;;;17.40;99.90;;;;;;5039113;28;20065;-74
2023/07/22 10:37:42;;;;;;;9.10;7.47;;;17.30;99.90;;;;;;5057682;28;20052;-74
2023/07/22 10:40:28;;;;;;;;;;;17.20;99.90;;;;;;5055386;28;20053;-74
2023/07/22 10:42:58;;;;;;;12.07;8.68;;;17.10;99.90;;;;;;5044498;28;19928;-74
2023/07/22 10:45:27;;;;;;;11.68;8.40;;;17.00;99.90;;;;;;5037358;28;20036;-73
2023/07/22 10:48:02;;;;;;;9.88;8.88;;;17.00;99.90;;;;;;5048665;28;20047;-73
2023/07/22 10:50:47;;;;;;;11.30;8.90;;;16.90;99.90;;;;;;5045083;28;20079;-74
2023/07/22 10:53:27;;;;;;;15.88;12.18;;;16.80;99.90;;;;;;5055698;28;20103;-75
2023/07/22 10:56:27;;;;;;;14.40;11.75;;;16.80;99.90;;;;;;5043114;28;20083;-75
2023/07/22 10:58:53;;;;;;;11.77;10.52;;;16.80;99.90;;;;;;5036831;28;20053;-75
2023/07/22 11:01:28;;;;;;;14.55;11.82;;;16.70;99.90;;;;;;5057881;28;20045;-75
2023/07/22 11:04:31;;;;;;;11.40;9.75;;;16.70;99.90;;;;;;5049299;28;21295;-74
2023/07/22 11:06:58;;;;;;;19.10;14.02;;;16.60;99.90;;;;;;5038312;28;20041;-75
2023/07/22 11:09:27;;;;;;;14.02;11.95;;;16.60;99.90;;;;;;5046487;28;20449;-75
2023/07/22 11:12:07;;;;;;;21.42;14.30;;;16.60;99.90;;;;;;5036112;28;20053;-74
2023/07/22 11:14:53;;;;;;;;;;;16.50;99.90;;;;;;5045708;28;20049;-73
2023/07/22 11:17:32;;;;;;;28.23;16.88;;;16.50;99.90;;;;;;5048950;28;20418;-72
2023/07/22 11:19:59;;;;;;;27.02;14.20;;;16.50;99.90;;;;;;5058856;28;20056;-73
2023/07/22 11:22:25;;;;;;;14.20;11.43;;;16.40;99.90;;;;;;5032397;28;20068;-73
2023/07/22 11:24:52;;;;;;;32.72;18.52;;;16.40;99.90;;;;;;5059908;28;20041;-73
2023/07/22 11:27:18;;;;;;;16.80;12.85;;;16.30;99.90;;;;;;5048132;28;20140;-72
2023/07/22 11:29:44;;;;;;;16.48;13.02;;;16.20;99.90;;;;;;5041170;28;20052;-73
2023/07/22 11:32:18;;;;;;;33.00;19.95;;;16.20;99.90;;;;;;5063364;28;20033;-72
2023/07/22 11:34:44;;;;;;;51.28;25.42;;;16.20;99.90;;;;;;5055376;28;20087;-73
2023/07/22 11:37:11;;;;;;;18.70;15.13;;;16.20;99.90;;;;;;5043995;28;20032;-74
2023/07/22 11:39:37;;;;;;;35.65;21.13;;;16.20;99.90;;;;;;5056870;28;20512;-73
2023/07/22 11:42:04;;;;;;;16.40;14.70;;;16.20;99.90;;;;;;5060962;28;20048;-73
2023/07/22 11:44:31;;;;;;;24.65;17.10;;;16.30;99.90;;;;;;5034739;28;20045;-73
2023/07/22 11:47:07;;;;;;;29.17;19.45;;;16.30;99.90;;;;;;5045502;28;20486;-74
2023/07/22 11:49:38;;;;;;;13.60;12.10;;;16.30;99.90;;;;;;5052963;28;20128;-73
2023/07/22 11:52:05;;;;;;;15.85;14.25;;;16.30;99.90;;;;;;5041830;28;20041;-72
2023/07/22 11:54:33;;;;;;;14.18;12.50;;;16.40;99.90;;;;;;5043931;28;20048;-72
2023/07/22 11:57:09;;;;;;;12.38;10.93;;;16.40;99.90;;;;;;5054936;28;20875;-73
2023/07/22 11:59:38;;;;;;;27.20;18.50;;;16.40;99.90;;;;;;5048204;28;20052;-73
2023/07/22 12:02:05;;;;;;;15.55;13.20;;;16.30;99.90;;;;;;5065664;28;20044;-73
2023/07/22 12:04:34;;;;;;;16.65;14.80;;;16.30;99.90;;;;;;5035523;28;20175;-73
2023/07/22 12:07:01;;;;;;;15.10;13.57;;;16.40;99.90;;;;;;5041358;28;20041;-73
2023/07/22 12:09:27;;;;;;;15.48;13.98;;;16.40;99.90;;;;;;5053002;28;20291;-73
2023/07/22 12:11:59;;;;;;;15.00;13.60;;;16.40;99.90;;;;;;5061770;28;20049;-73
2023/07/22 12:14:34;;;;;;;16.23;14.55;;;16.50;99.90;;;;;;5040632;28;20049;-73
2023/07/22 12:17:00;;;;;;;14.80;13.32;;;16.50;99.90;;;;;;5061655;28;20152;-73
2023/07/22 12:19:29;;;;;;;16.13;14.52;;;16.50;99.90;;;;;;5041010;28;20045;-73
2023/07/22 12:21:55;;;;;;;16.70;15.10;;;16.60;99.90;;;;;;5055847;28;20056;-74
2023/07/22 12:24:20;;;;;;;15.68;14.18;;;16.60;99.90;;;;;;5055576;28;20044;-73
2023/07/22 12:26:46;;;;;;;14.15;12.75;;;16.60;99.90;;;;;;5042108;28;20053;-73
2023/07/22 12:29:12;;;;;;;16.48;14.77;;;16.60;99.90;;;;;;5045119;28;20040;-73
2023/07/22 12:31:40;;;;;;;14.07;12.57;;;16.60;99.90;;;;;;5057726;28;20101;-73